PWSweather.com
Personal Weather Stations
Station Observations
79674
AfterstegDE 79674

AfterstegDE 79674

Lat: 47.84344, Lon: 7.92844

Elevation: 809

Station Type: Davis Vantage 2 Aktive

Latest ConditionsUpdated 5:52:05 PM GMT+01:01 Friday, Jan 30, 2015
Currently Today's Max Today's Min Today's Average
Temperature 28.2°F-2.1°C 32.5°F0.3°C 25.3°F-3.7°C 28.5°F-1.9°C
Dew Point 26.4°F-3.1°C 31.6°F-0.2°C 23.5°F-4.7°C 27.0°F-2.8°C
Winds 4.0 mph SE6.4 kmh SE 6.0 mph SE9.7 kmh SE - 1.2 mph 1.9 kmh
Wind Gusts 6.0 mph9.7 kmh 8.1 mph13.0 kmh - -
Humidity 93% 97% 91% 94%
Pressure 28.96 in980.7 mb 29.10 in985.4 mb 28.86 in977.3 mb -
Precipitation - 0.56 in14.2 mm - -
Hour Temp Dew Point Humidity Winds Wind Gusts Pressure Precip Precip Rate Daily Precip Total
05:52 PM 28.2°F-2.1°C 26.4°F-3.1°C 93% 4.0 mph SE6.4 kmh SE 6.0 mph9.7 kmh 28.96 in980.7 mb 0.00 in0.0 mm 0.00 in/hr0.0 mm/hr 0.56 in14.2 mm
05:47 PM 28.2°F-2.1°C 26.4°F-3.1°C 93% 4.9 mph SE7.9 kmh SE 4.0 mph6.4 kmh 28.96 in980.7 mb 0.00 in0.0 mm 0.00 in/hr0.0 mm/hr 0.56 in14.2 mm
05:42 PM 28.0°F-2.2°C 26.2°F-3.2°C 93% 4.9 mph E7.9 kmh E 6.9 mph11.1 kmh 28.96 in980.7 mb 0.00 in0.0 mm 0.00 in/hr0.0 mm/hr 0.56 in14.2 mm
05:37 PM 28.0°F-2.2°C 26.2°F-3.2°C 93% 6.0 mph SE9.7 kmh SE 6.0 mph9.7 kmh 28.96 in980.7 mb 0.00 in0.0 mm 0.00 in/hr0.0 mm/hr 0.56 in14.2 mm
05:32 PM 28.0°F-2.2°C 26.2°F-3.2°C 93% 6.0 mph E9.7 kmh E 6.0 mph9.7 kmh 28.96 in980.7 mb 0.00 in0.0 mm 0.00 in/hr0.0 mm/hr 0.55 in14.0 mm
05:27 PM 28.0°F-2.2°C 26.2°F-3.2°C 93% 4.9 mph ESE7.9 kmh ESE 4.9 mph7.9 kmh 28.97 in981.0 mb 0.00 in0.0 mm 0.00 in/hr0.0 mm/hr 0.55 in14.0 mm
05:22 PM 28.0°F-2.2°C 26.2°F-3.2°C 93% 4.0 mph SE6.4 kmh SE 4.0 mph6.4 kmh 28.96 in980.7 mb 0.00 in0.0 mm 0.00 in/hr0.0 mm/hr 0.55 in14.0 mm
05:17 PM 28.2°F-2.1°C 26.4°F-3.1°C 93% 4.0 mph SE6.4 kmh SE 4.9 mph7.9 kmh 28.96 in980.7 mb 0.04 in1.0 mm 0.00 in/hr0.0 mm/hr 0.55 in14.0 mm
05:12 PM 28.2°F-2.1°C 26.4°F-3.1°C 93% 4.0 mph SE6.4 kmh SE 4.0 mph6.4 kmh 28.96 in980.7 mb 0.05 in1.3 mm 0.00 in/hr0.0 mm/hr 0.55 in14.0 mm
05:07 PM 28.2°F-2.1°C 26.4°F-3.1°C 93% 4.0 mph SE6.4 kmh SE 4.9 mph7.9 kmh 28.96 in980.7 mb 0.05 in1.3 mm 0.60 in/hr15.2 mm/hr 0.54 in13.7 mm
05:02 PM 28.2°F-2.1°C 26.2°F-3.2°C 92% 4.9 mph SE7.9 kmh SE 2.0 mph3.2 kmh 28.96 in980.7 mb 0.00 in0.0 mm 0.00 in/hr0.0 mm/hr 0.54 in13.7 mm
04:57 PM 28.4°F-2.0°C 26.6°F-3.0°C 93% 4.9 mph E7.9 kmh E 6.9 mph11.1 kmh 28.96 in980.7 mb 0.00 in0.0 mm 0.00 in/hr0.0 mm/hr 0.54 in13.7 mm
04:52 PM 28.4°F-2.0°C 26.4°F-3.1°C 92% 6.0 mph ESE9.7 kmh ESE 6.9 mph11.1 kmh 28.96 in980.7 mb 0.00 in0.0 mm 0.00 in/hr0.0 mm/hr 0.54 in13.7 mm
04:47 PM 28.6°F-1.9°C 26.6°F-3.0°C 92% 4.9 mph ESE7.9 kmh ESE 4.9 mph7.9 kmh 28.96 in980.7 mb 0.03 in0.8 mm 0.00 in/hr0.0 mm/hr 0.54 in13.7 mm
04:42 PM 28.6°F-1.9°C 26.6°F-3.0°C 92% 4.0 mph ESE6.4 kmh ESE 4.0 mph6.4 kmh 28.96 in980.7 mb 0.05 in1.3 mm 0.00 in/hr0.0 mm/hr 0.54 in13.7 mm
04:37 PM 28.8°F-1.8°C 26.8°F-2.9°C 92% 4.0 mph SE6.4 kmh SE 4.0 mph6.4 kmh 28.96 in980.7 mb 0.05 in1.3 mm 0.60 in/hr15.2 mm/hr 0.53 in13.5 mm
04:32 PM 28.8°F-1.8°C 26.8°F-2.9°C 92% 4.9 mph SE7.9 kmh SE 2.9 mph4.7 kmh 28.96 in980.7 mb 0.00 in0.0 mm 0.00 in/hr0.0 mm/hr 0.53 in13.5 mm
04:27 PM 28.9°F-1.7°C 27.0°F-2.8°C 92% 4.9 mph E7.9 kmh E 8.1 mph13.0 kmh 28.96 in980.7 mb 0.00 in0.0 mm 0.00 in/hr0.0 mm/hr 0.52 in13.2 mm
04:22 PM 29.1°F-1.6°C 27.1°F-2.7°C 92% 4.9 mph SE7.9 kmh SE 6.9 mph11.1 kmh 28.97 in981.0 mb 0.00 in0.0 mm 0.00 in/hr0.0 mm/hr 0.52 in13.2 mm
04:17 PM 29.1°F-1.6°C 26.8°F-2.9°C 91% 4.0 mph SE6.4 kmh SE 4.9 mph7.9 kmh 28.97 in981.0 mb 0.00 in0.0 mm 0.00 in/hr0.0 mm/hr 0.52 in13.2 mm
04:12 PM 29.1°F-1.6°C 26.8°F-2.9°C 91% 4.0 mph ESE6.4 kmh ESE 4.0 mph6.4 kmh 28.97 in981.0 mb 0.00 in0.0 mm 0.00 in/hr0.0 mm/hr 0.52 in13.2 mm
04:07 PM 29.3°F-1.5°C 27.0°F-2.8°C 91% 4.0 mph ESE6.4 kmh ESE 4.9 mph7.9 kmh 28.97 in981.0 mb 0.00 in0.0 mm 0.00 in/hr0.0 mm/hr 0.52 in13.2 mm
04:02 PM 29.3°F-1.5°C 27.0°F-2.8°C 91% 4.9 mph SE7.9 kmh SE 4.9 mph7.9 kmh 28.97 in981.0 mb 0.00 in0.0 mm 0.00 in/hr0.0 mm/hr 0.52 in13.2 mm
03:57 PM 29.3°F-1.5°C 27.0°F-2.8°C 91% 6.0 mph ESE9.7 kmh ESE 2.9 mph4.7 kmh 28.97 in981.0 mb 0.00 in0.0 mm 0.00 in/hr0.0 mm/hr 0.51 in13.0 mm
03:52 PM 29.3°F-1.5°C 27.0°F-2.8°C 91% 4.9 mph N7.9 kmh N 4.0 mph6.4 kmh 28.97 in981.0 mb 0.00 in0.0 mm 0.00 in/hr0.0 mm/hr 0.51 in13.0 mm
03:47 PM 29.3°F-1.5°C 27.0°F-2.8°C 91% 2.9 mph ESE4.7 kmh ESE 2.9 mph4.7 kmh 28.97 in981.0 mb 0.00 in0.0 mm 0.00 in/hr0.0 mm/hr 0.51 in13.0 mm
03:42 PM 29.3°F-1.5°C 27.0°F-2.8°C 91% 2.9 mph SE4.7 kmh SE 2.0 mph3.2 kmh 28.97 in981.0 mb 0.00 in0.0 mm 0.00 in/hr0.0 mm/hr 0.51 in13.0 mm
03:37 PM 29.3°F-1.5°C 27.0°F-2.8°C 91% 2.9 mph E4.7 kmh E -- 28.98 in981.4 mb 0.00 in0.0 mm 0.00 in/hr0.0 mm/hr 0.51 in13.0 mm
03:32 PM 29.3°F-1.5°C 27.3°F-2.6°C 92% 2.9 mph SE4.7 kmh SE 2.9 mph4.7 kmh 28.98 in981.4 mb 0.00 in0.0 mm 0.00 in/hr0.0 mm/hr 0.51 in13.0 mm
03:27 PM 29.3°F-1.5°C 27.3°F-2.6°C 92% 4.0 mph ESE6.4 kmh ESE 0.9 mph1.4 kmh 28.98 in981.4 mb 0.00 in0.0 mm 0.00 in/hr0.0 mm/hr 0.51 in13.0 mm
03:22 PM 29.3°F-1.5°C 27.3°F-2.6°C 92% 4.0 mph E6.4 kmh E 6.9 mph11.1 kmh 28.98 in981.4 mb 0.00 in0.0 mm 0.00 in/hr0.0 mm/hr 0.51 in13.0 mm
03:17 PM 29.3°F-1.5°C 27.3°F-2.6°C 92% 4.0 mph SE6.4 kmh SE 2.9 mph4.7 kmh 28.98 in981.4 mb 0.00 in0.0 mm 0.00 in/hr0.0 mm/hr 0.50 in12.7 mm
03:12 PM 29.3°F-1.5°C 27.3°F-2.6°C 92% 2.9 mph E4.7 kmh E 6.9 mph11.1 kmh 28.98 in981.4 mb 0.00 in0.0 mm 0.00 in/hr0.0 mm/hr 0.50 in12.7 mm
03:07 PM 29.5°F-1.4°C 27.5°F-2.5°C 92% 2.0 mph SE3.2 kmh SE 2.9 mph4.7 kmh 28.98 in981.4 mb 0.00 in0.0 mm 0.00 in/hr0.0 mm/hr 0.50 in12.7 mm
03:02 PM 29.5°F-1.4°C 27.5°F-2.5°C 92% 2.0 mph E3.2 kmh E 0.9 mph1.4 kmh 28.98 in981.4 mb 0.00 in0.0 mm 0.00 in/hr0.0 mm/hr 0.50 in12.7 mm
02:57 PM 29.5°F-1.4°C 27.5°F-2.5°C 92% 2.0 mph ESE3.2 kmh ESE 0.9 mph1.4 kmh 28.98 in981.4 mb 0.00 in0.0 mm 0.00 in/hr0.0 mm/hr 0.50 in12.7 mm
02:52 PM 29.5°F-1.4°C 27.7°F-2.4°C 93% 0.9 mph SE1.4 kmh SE 2.0 mph3.2 kmh 28.98 in981.4 mb 0.00 in0.0 mm 0.00 in/hr0.0 mm/hr 0.50 in12.7 mm
02:47 PM 29.5°F-1.4°C 27.7°F-2.4°C 93% 0.9 mph SE1.4 kmh SE -- 28.99 in981.7 mb 0.00 in0.0 mm 0.00 in/hr0.0 mm/hr 0.50 in12.7 mm
02:42 PM 29.3°F-1.5°C 27.5°F-2.5°C 93% 2.0 mph N3.2 kmh N -- 28.99 in981.7 mb 0.00 in0.0 mm 0.00 in/hr0.0 mm/hr 0.50 in12.7 mm
02:37 PM 29.3°F-1.5°C 27.5°F-2.5°C 93% 0.9 mph ENE1.4 kmh ENE 2.0 mph3.2 kmh 28.99 in981.7 mb 0.00 in0.0 mm 0.00 in/hr0.0 mm/hr 0.50 in12.7 mm
02:32 PM 29.1°F-1.6°C 27.3°F-2.6°C 93% 0.9 mph SSE1.4 kmh SSE -- 29.00 in982.1 mb 0.00 in0.0 mm 0.00 in/hr0.0 mm/hr 0.50 in12.7 mm
02:27 PM 29.1°F-1.6°C 27.3°F-2.6°C 93% 2.0 mph SE3.2 kmh SE -- 28.99 in981.7 mb 0.00 in0.0 mm 0.00 in/hr0.0 mm/hr 0.50 in12.7 mm
02:22 PM 29.1°F-1.6°C 27.3°F-2.6°C 93% 2.9 mph SE4.7 kmh SE 4.0 mph6.4 kmh 29.00 in982.1 mb 0.00 in0.0 mm 0.00 in/hr0.0 mm/hr 0.50 in12.7 mm
02:17 PM 28.9°F-1.7°C 27.1°F-2.7°C 93% 2.0 mph ESE3.2 kmh ESE 2.0 mph3.2 kmh 29.00 in982.1 mb 0.00 in0.0 mm 0.00 in/hr0.0 mm/hr 0.50 in12.7 mm
02:12 PM 28.9°F-1.7°C 27.1°F-2.7°C 93% 2.0 mph SE3.2 kmh SE 2.0 mph3.2 kmh 29.00 in982.1 mb 0.00 in0.0 mm 0.00 in/hr0.0 mm/hr 0.50 in12.7 mm
02:07 PM 28.9°F-1.7°C 27.5°F-2.5°C 94% 0.9 mph ENE1.4 kmh ENE -- 29.00 in982.1 mb 0.00 in0.0 mm 0.00 in/hr0.0 mm/hr 0.50 in12.7 mm
02:02 PM 28.9°F-1.7°C 27.5°F-2.5°C 94% 2.0 mph E3.2 kmh E -- 29.00 in982.1 mb 0.00 in0.0 mm 0.00 in/hr0.0 mm/hr 0.50 in12.7 mm
01:57 PM 28.8°F-1.8°C 27.0°F-2.8°C 93% 4.0 mph ENE6.4 kmh ENE -- 29.00 in982.1 mb 0.00 in0.0 mm 0.00 in/hr0.0 mm/hr 0.50 in12.7 mm
01:52 PM 28.8°F-1.8°C 27.0°F-2.8°C 93% 4.0 mph ESE6.4 kmh ESE 8.1 mph13.0 kmh 29.00 in982.1 mb 0.00 in0.0 mm 0.00 in/hr0.0 mm/hr 0.50 in12.7 mm
01:47 PM 28.6°F-1.9°C 27.1°F-2.7°C 94% 2.9 mph E4.7 kmh E 6.9 mph11.1 kmh 29.01 in982.4 mb 0.00 in0.0 mm 0.00 in/hr0.0 mm/hr 0.50 in12.7 mm
01:42 PM 28.6°F-1.9°C 27.1°F-2.7°C 94% 2.9 mph ESE4.7 kmh ESE 4.9 mph7.9 kmh 29.01 in982.4 mb 0.00 in0.0 mm 0.00 in/hr0.0 mm/hr 0.50 in12.7 mm
01:37 PM 28.4°F-2.0°C 27.0°F-2.8°C 94% 2.0 mph E3.2 kmh E 4.0 mph6.4 kmh 29.01 in982.4 mb 0.03 in0.8 mm 0.00 in/hr0.0 mm/hr 0.50 in12.7 mm
01:32 PM 28.2°F-2.1°C 26.4°F-3.1°C 93% 2.0 mph E3.2 kmh E 2.9 mph4.7 kmh 29.02 in982.7 mb 0.04 in1.0 mm 0.00 in/hr0.0 mm/hr 0.50 in12.7 mm
01:27 PM 28.0°F-2.2°C 26.2°F-3.2°C 93% 2.9 mph SE4.7 kmh SE -- 29.02 in982.7 mb 0.04 in1.0 mm 0.00 in/hr0.0 mm/hr 0.50 in12.7 mm
01:22 PM 28.0°F-2.2°C 26.2°F-3.2°C 93% 2.9 mph E4.7 kmh E 4.9 mph7.9 kmh 29.02 in982.7 mb 0.05 in1.3 mm 0.00 in/hr0.0 mm/hr 0.49 in12.4 mm
01:17 PM 28.0°F-2.2°C 26.2°F-3.2°C 93% 2.9 mph SE4.7 kmh SE 2.0 mph3.2 kmh 29.02 in982.7 mb 0.08 in2.0 mm 0.48 in/hr12.2 mm/hr 0.48 in12.2 mm
01:12 PM 28.0°F-2.2°C 26.2°F-3.2°C 93% 2.9 mph SE4.7 kmh SE 2.0 mph3.2 kmh 29.02 in982.7 mb 0.04 in1.0 mm 0.00 in/hr0.0 mm/hr 0.48 in12.2 mm
01:07 PM 28.0°F-2.2°C 26.2°F-3.2°C 93% 2.9 mph SE4.7 kmh SE 4.0 mph6.4 kmh 29.02 in982.7 mb 0.04 in1.0 mm 0.00 in/hr0.0 mm/hr 0.47 in11.9 mm
01:02 PM 28.0°F-2.2°C 26.2°F-3.2°C 93% 2.0 mph SE3.2 kmh SE 2.9 mph4.7 kmh 29.03 in983.1 mb 0.07 in1.8 mm 0.00 in/hr0.0 mm/hr 0.47 in11.9 mm
12:57 PM 28.0°F-2.2°C 26.2°F-3.2°C 93% 2.9 mph SE4.7 kmh SE 2.0 mph3.2 kmh 29.03 in983.1 mb 0.08 in2.0 mm 0.36 in/hr9.1 mm/hr 0.46 in11.7 mm
12:52 PM 28.0°F-2.2°C 26.2°F-3.2°C 93% 2.0 mph ESE3.2 kmh ESE 2.9 mph4.7 kmh 29.03 in983.1 mb 0.05 in1.3 mm 0.60 in/hr15.2 mm/hr 0.46 in11.7 mm
12:47 PM 28.0°F-2.2°C 26.2°F-3.2°C 93% 2.9 mph SE4.7 kmh SE 0.9 mph1.4 kmh 29.03 in983.1 mb 0.00 in0.0 mm 0.00 in/hr0.0 mm/hr 0.46 in11.7 mm
12:42 PM 27.9°F-2.3°C 26.1°F-3.3°C 93% 2.9 mph SE4.7 kmh SE -- 29.03 in983.1 mb 0.00 in0.0 mm 0.00 in/hr0.0 mm/hr 0.46 in11.7 mm
12:37 PM 27.9°F-2.3°C 26.1°F-3.3°C 93% 2.9 mph SE4.7 kmh SE 2.9 mph4.7 kmh 29.04 in983.4 mb 0.00 in0.0 mm 0.00 in/hr0.0 mm/hr 0.45 in11.4 mm
12:32 PM 27.9°F-2.3°C 26.1°F-3.3°C 93% 2.9 mph E4.7 kmh E 4.9 mph7.9 kmh 29.04 in983.4 mb 0.00 in0.0 mm 0.00 in/hr0.0 mm/hr 0.45 in11.4 mm
12:27 PM 27.7°F-2.4°C 25.9°F-3.4°C 93% 2.9 mph SE4.7 kmh SE 0.9 mph1.4 kmh 29.05 in983.7 mb 0.00 in0.0 mm 0.00 in/hr0.0 mm/hr 0.45 in11.4 mm
12:22 PM 27.7°F-2.4°C 25.7°F-3.5°C 92% 2.9 mph SSE4.7 kmh SSE 4.0 mph6.4 kmh 29.05 in983.7 mb 0.00 in0.0 mm 0.00 in/hr0.0 mm/hr 0.45 in11.4 mm
12:17 PM 27.7°F-2.4°C 25.9°F-3.4°C 93% 4.0 mph ESE6.4 kmh ESE 4.0 mph6.4 kmh 29.05 in983.7 mb 0.00 in0.0 mm 0.00 in/hr0.0 mm/hr 0.45 in11.4 mm
12:12 PM 27.7°F-2.4°C 25.7°F-3.5°C 92% 2.9 mph SE4.7 kmh SE 4.0 mph6.4 kmh 29.06 in984.1 mb 0.00 in0.0 mm 0.00 in/hr0.0 mm/hr 0.45 in11.4 mm
12:07 PM 27.7°F-2.4°C 25.7°F-3.5°C 92% 4.0 mph E6.4 kmh E 6.0 mph9.7 kmh 29.06 in984.1 mb 0.00 in0.0 mm 0.00 in/hr0.0 mm/hr 0.45 in11.4 mm
12:02 PM 27.7°F-2.4°C 25.9°F-3.4°C 93% 4.0 mph SE6.4 kmh SE 4.9 mph7.9 kmh 29.06 in984.1 mb 0.00 in0.0 mm 0.00 in/hr0.0 mm/hr 0.45 in11.4 mm
11:57 AM 27.9°F-2.3°C 26.1°F-3.3°C 93% 2.9 mph E4.7 kmh E 6.9 mph11.1 kmh 29.07 in984.4 mb 0.00 in0.0 mm 0.00 in/hr0.0 mm/hr 0.45 in11.4 mm
11:52 AM 27.7°F-2.4°C 25.9°F-3.4°C 93% 4.0 mph S6.4 kmh S 2.9 mph4.7 kmh 29.07 in984.4 mb 0.03 in0.8 mm 0.00 in/hr0.0 mm/hr 0.45 in11.4 mm
11:47 AM 27.7°F-2.4°C 25.9°F-3.4°C 93% 4.0 mph SE6.4 kmh SE 2.0 mph3.2 kmh 29.08 in984.8 mb 0.04 in1.0 mm 0.00 in/hr0.0 mm/hr 0.45 in11.4 mm
11:42 AM 27.7°F-2.4°C 25.9°F-3.4°C 93% 2.0 mph SE3.2 kmh SE 2.9 mph4.7 kmh 29.08 in984.8 mb 0.04 in1.0 mm 0.00 in/hr0.0 mm/hr 0.45 in11.4 mm
11:37 AM 27.5°F-2.5°C 25.7°F-3.5°C 93% Calm Calm 2.9 mph4.7 kmh 29.08 in984.8 mb 0.04 in1.0 mm 0.48 in/hr12.2 mm/hr 0.44 in11.2 mm
11:32 AM 27.5°F-2.5°C 25.7°F-3.5°C 93% Calm Calm 2.0 mph3.2 kmh 29.08 in984.8 mb 0.00 in0.0 mm 0.00 in/hr0.0 mm/hr 0.44 in11.2 mm
11:27 AM 27.3°F-2.6°C 25.5°F-3.6°C 93% Calm Calm -- 29.09 in985.1 mb 0.00 in0.0 mm 0.00 in/hr0.0 mm/hr 0.43 in10.9 mm
11:22 AM 27.3°F-2.6°C 25.9°F-3.4°C 94% Calm Calm -- 29.08 in984.8 mb 0.00 in0.0 mm 0.00 in/hr0.0 mm/hr 0.43 in10.9 mm
11:17 AM 27.3°F-2.6°C 25.9°F-3.4°C 94% Calm Calm -- 29.08 in984.8 mb 0.00 in0.0 mm 0.00 in/hr0.0 mm/hr 0.43 in10.9 mm
11:12 AM 27.1°F-2.7°C 25.7°F-3.5°C 94% Calm Calm -- 29.08 in984.8 mb 0.00 in0.0 mm 0.00 in/hr0.0 mm/hr 0.43 in10.9 mm
11:07 AM 27.1°F-2.7°C 25.7°F-3.5°C 94% Calm Calm -- 29.08 in984.8 mb 0.00 in0.0 mm 0.00 in/hr0.0 mm/hr 0.43 in10.9 mm
11:02 AM 27.1°F-2.7°C 25.7°F-3.5°C 94% Calm Calm -- 29.09 in985.1 mb 0.00 in0.0 mm 0.00 in/hr0.0 mm/hr 0.43 in10.9 mm
10:57 AM 27.1°F-2.7°C 25.7°F-3.5°C 94% Calm Calm -- 29.08 in984.8 mb 0.00 in0.0 mm 0.00 in/hr0.0 mm/hr 0.43 in10.9 mm
10:52 AM 27.0°F-2.8°C 25.5°F-3.6°C 94% Calm Calm -- 29.08 in984.8 mb 0.00 in0.0 mm 0.00 in/hr0.0 mm/hr 0.43 in10.9 mm
10:47 AM 26.8°F-2.9°C 25.3°F-3.7°C 94% Calm Calm -- 29.09 in985.1 mb 0.00 in0.0 mm 0.00 in/hr0.0 mm/hr 0.43 in10.9 mm
10:42 AM 26.6°F-3.0°C 25.2°F-3.8°C 94% Calm Calm -- 29.09 in985.1 mb 0.00 in0.0 mm 0.00 in/hr0.0 mm/hr 0.43 in10.9 mm
10:37 AM 26.4°F-3.1°C 25.0°F-3.9°C 94% Calm Calm -- 29.09 in985.1 mb 0.03 in0.8 mm 0.00 in/hr0.0 mm/hr 0.43 in10.9 mm
10:32 AM 26.4°F-3.1°C 25.0°F-3.9°C 94% Calm Calm -- 29.09 in985.1 mb 0.03 in0.8 mm 0.00 in/hr0.0 mm/hr 0.43 in10.9 mm
10:27 AM 26.4°F-3.1°C 25.0°F-3.9°C 94% Calm Calm -- 29.09 in985.1 mb 0.03 in0.8 mm 0.00 in/hr0.0 mm/hr 0.43 in10.9 mm
10:22 AM 26.4°F-3.1°C 25.0°F-3.9°C 94% Calm Calm -- 29.09 in985.1 mb 0.03 in0.8 mm 0.00 in/hr0.0 mm/hr 0.42 in10.7 mm
10:17 AM 26.2°F-3.2°C 24.8°F-4.0°C 94% Calm Calm -- 29.09 in985.1 mb 0.03 in0.8 mm 0.00 in/hr0.0 mm/hr 0.42 in10.7 mm
10:12 AM 26.2°F-3.2°C 24.8°F-4.0°C 94% Calm Calm -- 29.09 in985.1 mb 0.03 in0.8 mm 0.00 in/hr0.0 mm/hr 0.42 in10.7 mm
10:07 AM 26.2°F-3.2°C 24.8°F-4.0°C 94% Calm Calm -- 29.10 in985.4 mb 0.03 in0.8 mm 0.00 in/hr0.0 mm/hr 0.41 in10.4 mm
10:02 AM 26.2°F-3.2°C 24.4°F-4.2°C 93% Calm Calm -- 29.09 in985.1 mb 0.05 in1.3 mm 0.00 in/hr0.0 mm/hr 0.41 in10.4 mm
09:57 AM 26.2°F-3.2°C 24.8°F-4.0°C 94% Calm Calm -- 29.10 in985.4 mb 0.08 in2.0 mm 0.00 in/hr0.0 mm/hr 0.41 in10.4 mm
09:52 AM 26.2°F-3.2°C 24.8°F-4.0°C 94% Calm Calm -- 29.10 in985.4 mb 0.08 in2.0 mm 0.24 in/hr6.1 mm/hr 0.40 in10.2 mm
09:47 AM 26.2°F-3.2°C 24.4°F-4.2°C 93% Calm Calm -- 29.10 in985.4 mb 0.06 in1.5 mm 0.36 in/hr9.1 mm/hr 0.39 in9.9 mm
09:37 AM 26.1°F-3.3°C 24.3°F-4.3°C 93% Calm Calm -- 29.10 in985.4 mb 0.00 in0.0 mm 0.00 in/hr0.0 mm/hr 0.39 in9.9 mm
09:32 AM 26.1°F-3.3°C 24.3°F-4.3°C 93% Calm Calm -- 29.10 in985.4 mb 0.00 in0.0 mm 0.00 in/hr0.0 mm/hr 0.39 in9.9 mm
09:27 AM 26.1°F-3.3°C 24.3°F-4.3°C 93% Calm Calm -- 29.10 in985.4 mb 0.00 in0.0 mm 0.00 in/hr0.0 mm/hr 0.39 in9.9 mm
09:22 AM 25.9°F-3.4°C 24.1°F-4.4°C 93% Calm Calm -- 29.10 in985.4 mb 0.00 in0.0 mm 0.00 in/hr0.0 mm/hr 0.39 in9.9 mm
09:17 AM 25.9°F-3.4°C 24.1°F-4.4°C 93% Calm Calm -- 29.10 in985.4 mb 0.00 in0.0 mm 0.00 in/hr0.0 mm/hr 0.39 in9.9 mm
09:12 AM 25.9°F-3.4°C 24.1°F-4.4°C 93% Calm Calm -- 29.09 in985.1 mb 0.00 in0.0 mm 0.00 in/hr0.0 mm/hr 0.39 in9.9 mm
09:07 AM 25.9°F-3.4°C 24.1°F-4.4°C 93% Calm Calm -- 29.10 in985.4 mb 0.00 in0.0 mm 0.00 in/hr0.0 mm/hr 0.39 in9.9 mm
09:02 AM 25.9°F-3.4°C 24.1°F-4.4°C 93% Calm Calm -- 29.10 in985.4 mb 0.00 in0.0 mm 0.00 in/hr0.0 mm/hr 0.39 in9.9 mm
08:57 AM 25.7°F-3.5°C 23.9°F-4.5°C 93% Calm Calm -- 29.10 in985.4 mb 0.00 in0.0 mm 0.00 in/hr0.0 mm/hr 0.39 in9.9 mm
08:52 AM 25.7°F-3.5°C 23.9°F-4.5°C 93% Calm Calm -- 29.10 in985.4 mb 0.00 in0.0 mm 0.00 in/hr0.0 mm/hr 0.38 in9.7 mm
08:47 AM 25.7°F-3.5°C 23.9°F-4.5°C 93% Calm Calm -- 29.10 in985.4 mb 0.00 in0.0 mm 0.00 in/hr0.0 mm/hr 0.38 in9.7 mm
08:42 AM 25.5°F-3.6°C 23.7°F-4.6°C 93% Calm Calm -- 29.10 in985.4 mb 0.00 in0.0 mm 0.00 in/hr0.0 mm/hr 0.38 in9.7 mm
08:37 AM 25.5°F-3.6°C 23.7°F-4.6°C 93% Calm Calm -- 29.10 in985.4 mb 0.00 in0.0 mm 0.00 in/hr0.0 mm/hr 0.38 in9.7 mm
08:32 AM 25.5°F-3.6°C 23.7°F-4.6°C 93% Calm Calm -- 29.10 in985.4 mb 0.00 in0.0 mm 0.00 in/hr0.0 mm/hr 0.38 in9.7 mm
08:27 AM 25.5°F-3.6°C 23.7°F-4.6°C 93% Calm Calm -- 29.10 in985.4 mb 0.00 in0.0 mm 0.00 in/hr0.0 mm/hr 0.38 in9.7 mm
08:22 AM 25.3°F-3.7°C 23.5°F-4.7°C 93% Calm Calm -- 29.10 in985.4 mb 0.00 in0.0 mm 0.00 in/hr0.0 mm/hr 0.38 in9.7 mm
08:17 AM 25.3°F-3.7°C 23.5°F-4.7°C 93% Calm Calm -- 29.10 in985.4 mb 0.00 in0.0 mm 0.00 in/hr0.0 mm/hr 0.38 in9.7 mm
08:12 AM 25.3°F-3.7°C 23.5°F-4.7°C 93% Calm Calm -- 29.10 in985.4 mb 0.00 in0.0 mm 0.00 in/hr0.0 mm/hr 0.38 in9.7 mm
08:07 AM 25.3°F-3.7°C 23.5°F-4.7°C 93% Calm Calm -- 29.09 in985.1 mb 0.00 in0.0 mm 0.00 in/hr0.0 mm/hr 0.38 in9.7 mm
08:02 AM 25.3°F-3.7°C 23.5°F-4.7°C 93% Calm Calm -- 29.09 in985.1 mb 0.00 in0.0 mm 0.00 in/hr0.0 mm/hr 0.38 in9.7 mm
07:57 AM 25.3°F-3.7°C 23.5°F-4.7°C 93% Calm Calm -- 29.09 in985.1 mb 0.00 in0.0 mm 0.00 in/hr0.0 mm/hr 0.38 in9.7 mm
07:52 AM 25.3°F-3.7°C 23.5°F-4.7°C 93% Calm Calm -- 29.09 in985.1 mb 0.00 in0.0 mm 0.00 in/hr0.0 mm/hr 0.38 in9.7 mm
07:47 AM 25.5°F-3.6°C 24.1°F-4.4°C 94% Calm Calm -- 29.09 in985.1 mb 0.00 in0.0 mm 0.00 in/hr0.0 mm/hr 0.38 in9.7 mm
07:42 AM 25.5°F-3.6°C 24.1°F-4.4°C 94% Calm Calm -- 29.09 in985.1 mb 0.00 in0.0 mm 0.00 in/hr0.0 mm/hr 0.38 in9.7 mm
07:37 AM 25.7°F-3.5°C 24.3°F-4.3°C 94% Calm Calm -- 29.08 in984.8 mb 0.00 in0.0 mm 0.00 in/hr0.0 mm/hr 0.38 in9.7 mm
07:32 AM 25.7°F-3.5°C 24.3°F-4.3°C 94% Calm Calm -- 29.08 in984.8 mb 0.00 in0.0 mm 0.00 in/hr0.0 mm/hr 0.38 in9.7 mm
07:27 AM 25.7°F-3.5°C 24.3°F-4.3°C 94% Calm Calm -- 29.08 in984.8 mb 0.00 in0.0 mm 0.00 in/hr0.0 mm/hr 0.38 in9.7 mm
07:22 AM 25.7°F-3.5°C 24.3°F-4.3°C 94% Calm Calm -- 29.08 in984.8 mb 0.00 in0.0 mm 0.00 in/hr0.0 mm/hr 0.38 in9.7 mm
07:17 AM 25.9°F-3.4°C 24.4°F-4.2°C 94% Calm Calm -- 29.08 in984.8 mb 0.00 in0.0 mm 0.00 in/hr0.0 mm/hr 0.37 in9.4 mm
07:12 AM 25.9°F-3.4°C 24.4°F-4.2°C 94% Calm Calm -- 29.08 in984.8 mb 0.00 in0.0 mm 0.00 in/hr0.0 mm/hr 0.37 in9.4 mm
07:07 AM 25.9°F-3.4°C 24.4°F-4.2°C 94% Calm Calm -- 29.08 in984.8 mb 0.00 in0.0 mm 0.00 in/hr0.0 mm/hr 0.37 in9.4 mm
07:02 AM 26.1°F-3.3°C 24.8°F-4.0°C 95% Calm Calm -- 29.07 in984.4 mb 0.00 in0.0 mm 0.00 in/hr0.0 mm/hr 0.37 in9.4 mm
06:57 AM 26.1°F-3.3°C 24.8°F-4.0°C 95% Calm Calm -- 29.06 in984.1 mb 0.00 in0.0 mm 0.00 in/hr0.0 mm/hr 0.37 in9.4 mm
06:52 AM 26.1°F-3.3°C 24.8°F-4.0°C 95% Calm Calm -- 29.06 in984.1 mb 0.00 in0.0 mm 0.00 in/hr0.0 mm/hr 0.37 in9.4 mm
06:47 AM 26.2°F-3.2°C 25.0°F-3.9°C 95% Calm Calm -- 29.07 in984.4 mb 0.00 in0.0 mm 0.00 in/hr0.0 mm/hr 0.36 in9.1 mm
06:42 AM 26.4°F-3.1°C 25.2°F-3.8°C 95% Calm Calm -- 29.06 in984.1 mb 0.03 in0.8 mm 0.00 in/hr0.0 mm/hr 0.36 in9.1 mm
06:37 AM 26.6°F-3.0°C 25.3°F-3.7°C 95% Calm Calm -- 29.05 in983.7 mb 0.04 in1.0 mm 0.00 in/hr0.0 mm/hr 0.36 in9.1 mm
06:32 AM 26.8°F-2.9°C 25.5°F-3.6°C 95% Calm Calm -- 29.05 in983.7 mb 0.07 in1.8 mm 0.00 in/hr0.0 mm/hr 0.36 in9.1 mm
06:27 AM 26.8°F-2.9°C 25.5°F-3.6°C 95% Calm Calm -- 29.05 in983.7 mb 0.07 in1.8 mm 0.36 in/hr9.1 mm/hr 0.35 in8.9 mm
06:22 AM 27.0°F-2.8°C 25.7°F-3.5°C 95% Calm Calm -- 29.05 in983.7 mb 0.04 in1.0 mm 0.00 in/hr0.0 mm/hr 0.35 in8.9 mm
06:17 AM 27.1°F-2.7°C 25.9°F-3.4°C 95% Calm Calm -- 29.04 in983.4 mb 0.04 in1.0 mm 0.00 in/hr0.0 mm/hr 0.35 in8.9 mm
06:12 AM 27.3°F-2.6°C 26.1°F-3.3°C 95% Calm Calm -- 29.03 in983.1 mb 0.07 in1.8 mm 0.00 in/hr0.0 mm/hr 0.35 in8.9 mm
06:07 AM 27.7°F-2.4°C 26.4°F-3.1°C 95% Calm Calm -- 29.04 in983.4 mb 0.09 in2.3 mm 0.00 in/hr0.0 mm/hr 0.33 in8.4 mm
06:02 AM 27.7°F-2.4°C 26.4°F-3.1°C 95% Calm Calm -- 29.04 in983.4 mb 0.13 in3.3 mm 0.07 in/hr1.8 mm/hr 0.33 in8.4 mm
05:57 AM 27.7°F-2.4°C 26.4°F-3.1°C 95% Calm Calm -- 29.03 in983.1 mb 0.07 in1.8 mm 0.00 in/hr0.0 mm/hr 0.31 in7.9 mm
05:52 AM 27.7°F-2.4°C 26.4°F-3.1°C 95% Calm Calm -- 29.02 in982.7 mb 0.07 in1.8 mm 0.84 in/hr21.3 mm/hr 0.31 in7.9 mm
05:47 AM 27.7°F-2.4°C 26.4°F-3.1°C 95% Calm Calm -- 29.00 in982.1 mb 0.00 in0.0 mm 0.00 in/hr0.0 mm/hr 0.31 in7.9 mm
05:42 AM 27.7°F-2.4°C 26.4°F-3.1°C 95% Calm Calm -- 29.00 in982.1 mb 0.00 in0.0 mm 0.00 in/hr0.0 mm/hr 0.31 in7.9 mm
05:37 AM 27.9°F-2.3°C 26.6°F-3.0°C 95% Calm Calm -- 29.00 in982.1 mb 0.00 in0.0 mm 0.00 in/hr0.0 mm/hr 0.31 in7.9 mm
05:32 AM 27.9°F-2.3°C 26.6°F-3.0°C 95% Calm Calm -- 28.99 in981.7 mb 0.00 in0.0 mm 0.00 in/hr0.0 mm/hr 0.31 in7.9 mm
05:27 AM 28.0°F-2.2°C 26.8°F-2.9°C 95% Calm Calm -- 29.00 in982.1 mb 0.00 in0.0 mm 0.00 in/hr0.0 mm/hr 0.31 in7.9 mm
05:22 AM 28.0°F-2.2°C 26.8°F-2.9°C 95% Calm Calm -- 28.99 in981.7 mb 0.00 in0.0 mm 0.00 in/hr0.0 mm/hr 0.31 in7.9 mm
05:17 AM 28.0°F-2.2°C 26.8°F-2.9°C 95% Calm Calm -- 28.98 in981.4 mb 0.00 in0.0 mm 0.00 in/hr0.0 mm/hr 0.31 in7.9 mm
05:12 AM 28.2°F-2.1°C 27.0°F-2.8°C 95% Calm Calm -- 28.98 in981.4 mb 0.00 in0.0 mm 0.00 in/hr0.0 mm/hr 0.31 in7.9 mm
05:07 AM 28.2°F-2.1°C 27.0°F-2.8°C 95% Calm Calm -- 28.98 in981.4 mb 0.00 in0.0 mm 0.00 in/hr0.0 mm/hr 0.31 in7.9 mm
05:02 AM 28.4°F-2.0°C 27.1°F-2.7°C 95% Calm Calm -- 28.98 in981.4 mb 0.00 in0.0 mm 0.00 in/hr0.0 mm/hr 0.31 in7.9 mm
04:57 AM 28.6°F-1.9°C 27.3°F-2.6°C 95% Calm Calm -- 28.97 in981.0 mb 0.00 in0.0 mm 0.00 in/hr0.0 mm/hr 0.31 in7.9 mm
04:52 AM 28.8°F-1.8°C 27.5°F-2.5°C 95% Calm Calm -- 28.97 in981.0 mb 0.00 in0.0 mm 0.00 in/hr0.0 mm/hr 0.31 in7.9 mm
04:47 AM 28.8°F-1.8°C 27.5°F-2.5°C 95% Calm Calm -- 28.96 in980.7 mb 0.00 in0.0 mm 0.00 in/hr0.0 mm/hr 0.31 in7.9 mm
04:42 AM 28.9°F-1.7°C 27.7°F-2.4°C 95% Calm Calm -- 28.96 in980.7 mb 0.00 in0.0 mm 0.00 in/hr0.0 mm/hr 0.31 in7.9 mm
04:37 AM 28.9°F-1.7°C 27.7°F-2.4°C 95% Calm Calm -- 28.96 in980.7 mb 0.00 in0.0 mm 0.00 in/hr0.0 mm/hr 0.31 in7.9 mm
04:32 AM 29.1°F-1.6°C 27.9°F-2.3°C 95% Calm Calm -- 28.96 in980.7 mb 0.00 in0.0 mm 0.00 in/hr0.0 mm/hr 0.30 in7.6 mm
04:27 AM 29.1°F-1.6°C 27.9°F-2.3°C 95% Calm Calm -- 28.95 in980.4 mb 0.03 in0.8 mm 0.00 in/hr0.0 mm/hr 0.30 in7.6 mm
04:22 AM 29.1°F-1.6°C 27.9°F-2.3°C 95% Calm Calm -- 28.95 in980.4 mb 0.05 in1.3 mm 0.00 in/hr0.0 mm/hr 0.30 in7.6 mm
04:17 AM 29.1°F-1.6°C 27.9°F-2.3°C 95% Calm Calm -- 28.95 in980.4 mb 0.09 in2.3 mm 0.00 in/hr0.0 mm/hr 0.30 in7.6 mm
04:12 AM 29.3°F-1.5°C 28.0°F-2.2°C 95% Calm Calm -- 28.95 in980.4 mb 0.09 in2.3 mm 0.24 in/hr6.1 mm/hr 0.29 in7.4 mm
04:07 AM 29.5°F-1.4°C 28.2°F-2.1°C 95% Calm Calm -- 28.94 in980.0 mb 0.07 in1.8 mm 0.00 in/hr0.0 mm/hr 0.28 in7.1 mm
04:02 AM 29.7°F-1.3°C 28.4°F-2.0°C 95% Calm Calm -- 28.95 in980.4 mb 0.14 in3.6 mm 0.15 in/hr3.8 mm/hr 0.28 in7.1 mm
03:57 AM 29.8°F-1.2°C 28.6°F-1.9°C 95% Calm Calm -- 28.93 in979.7 mb 0.00 in0.0 mm 0.00 in/hr0.0 mm/hr 0.27 in6.9 mm
03:52 AM 30.4°F-0.9°C 29.1°F-1.6°C 95% Calm Calm -- 28.94 in980.0 mb 0.00 in0.0 mm 0.00 in/hr0.0 mm/hr 0.27 in6.9 mm
03:47 AM 30.7°F-0.7°C 29.7°F-1.3°C 96% Calm Calm -- 28.92 in979.3 mb 0.00 in0.0 mm 0.00 in/hr0.0 mm/hr 0.27 in6.9 mm
03:42 AM 30.7°F-0.7°C 29.7°F-1.3°C 96% Calm Calm -- 28.91 in979.0 mb 0.00 in0.0 mm 0.00 in/hr0.0 mm/hr 0.27 in6.9 mm
03:37 AM 30.7°F-0.7°C 29.7°F-1.3°C 96% Calm Calm -- 28.90 in978.7 mb 0.00 in0.0 mm 0.00 in/hr0.0 mm/hr 0.27 in6.9 mm
03:32 AM 30.9°F-0.6°C 29.8°F-1.2°C 96% Calm Calm -- 28.90 in978.7 mb 0.00 in0.0 mm 0.00 in/hr0.0 mm/hr 0.27 in6.9 mm
03:27 AM 30.9°F-0.6°C 29.8°F-1.2°C 96% Calm Calm -- 28.91 in979.0 mb 0.00 in0.0 mm 0.00 in/hr0.0 mm/hr 0.26 in6.6 mm
03:22 AM 30.9°F-0.6°C 29.8°F-1.2°C 96% Calm Calm -- 28.91 in979.0 mb 0.00 in0.0 mm 0.00 in/hr0.0 mm/hr 0.26 in6.6 mm
03:17 AM 30.9°F-0.6°C 29.8°F-1.2°C 96% Calm Calm -- 28.91 in979.0 mb 0.00 in0.0 mm 0.00 in/hr0.0 mm/hr 0.26 in6.6 mm
03:12 AM 30.9°F-0.6°C 29.8°F-1.2°C 96% Calm Calm -- 28.91 in979.0 mb 0.00 in0.0 mm 0.00 in/hr0.0 mm/hr 0.26 in6.6 mm
03:07 AM 31.1°F-0.5°C 30.0°F-1.1°C 96% Calm Calm -- 28.91 in979.0 mb 0.00 in0.0 mm 0.00 in/hr0.0 mm/hr 0.26 in6.6 mm
03:02 AM 31.1°F-0.5°C 30.0°F-1.1°C 96% Calm Calm -- 28.91 in979.0 mb 0.00 in0.0 mm 0.00 in/hr0.0 mm/hr 0.26 in6.6 mm
02:57 AM 31.3°F-0.4°C 30.2°F-1.0°C 96% Calm Calm -- 28.91 in979.0 mb 0.04 in1.0 mm 0.00 in/hr0.0 mm/hr 0.26 in6.6 mm
02:52 AM 31.3°F-0.4°C 30.2°F-1.0°C 96% Calm Calm -- 28.92 in979.3 mb 0.04 in1.0 mm 0.00 in/hr0.0 mm/hr 0.26 in6.6 mm
02:47 AM 31.5°F-0.3°C 30.7°F-0.7°C 97% Calm Calm -- 28.91 in979.0 mb 0.04 in1.0 mm 0.00 in/hr0.0 mm/hr 0.25 in6.4 mm
02:42 AM 31.5°F-0.3°C 30.7°F-0.7°C 97% Calm Calm -- 28.90 in978.7 mb 0.05 in1.3 mm 0.00 in/hr0.0 mm/hr 0.25 in6.4 mm
02:37 AM 31.5°F-0.3°C 30.7°F-0.7°C 97% Calm Calm -- 28.90 in978.7 mb 0.06 in1.5 mm 0.00 in/hr0.0 mm/hr 0.25 in6.4 mm
02:32 AM 31.6°F-0.2°C 30.6°F-0.8°C 96% Calm Calm -- 28.90 in978.7 mb 0.06 in1.5 mm 0.00 in/hr0.0 mm/hr 0.24 in6.1 mm
02:27 AM 31.8°F-0.1°C 30.7°F-0.7°C 96% Calm Calm -- 28.90 in978.7 mb 0.09 in2.3 mm 0.00 in/hr0.0 mm/hr 0.24 in6.1 mm
02:22 AM 31.8°F-0.1°C 31.1°F-0.5°C 97% Calm Calm -- 28.90 in978.7 mb 0.13 in3.3 mm 0.48 in/hr12.2 mm/hr 0.24 in6.1 mm
02:17 AM 31.8°F-0.1°C 31.1°F-0.5°C 97% Calm Calm -- 28.90 in978.7 mb 0.09 in2.3 mm 0.00 in/hr0.0 mm/hr 0.22 in5.6 mm
02:07 AM 32.2°F0.1°C 31.5°F-0.3°C 97% Calm Calm -- 28.90 in978.7 mb 0.11 in2.8 mm 0.00 in/hr0.0 mm/hr 0.20 in5.1 mm
02:02 AM 32.2°F0.1°C 31.5°F-0.3°C 97% Calm Calm -- 28.89 in978.3 mb 0.13 in3.3 mm 0.00 in/hr0.0 mm/hr 0.19 in4.8 mm
01:57 AM 32.4°F0.2°C 31.6°F-0.2°C 97% Calm Calm -- 28.88 in978.0 mb 0.16 in4.1 mm 0.36 in/hr9.1 mm/hr 0.17 in4.3 mm
01:52 AM 32.4°F0.2°C 31.6°F-0.2°C 97% Calm Calm -- 28.87 in977.7 mb 0.13 in3.3 mm 0.00 in/hr0.0 mm/hr 0.17 in4.3 mm
01:47 AM 32.4°F0.2°C 31.6°F-0.2°C 97% Calm Calm -- 28.87 in977.7 mb 0.18 in4.6 mm 1.32 in/hr33.5 mm/hr 0.16 in4.1 mm
01:42 AM 32.4°F0.2°C 31.6°F-0.2°C 97% Calm Calm -- 28.87 in977.7 mb 0.07 in1.8 mm 0.00 in/hr0.0 mm/hr 0.14 in3.6 mm
01:37 AM 32.4°F0.2°C 31.6°F-0.2°C 97% Calm Calm -- 28.87 in977.7 mb 0.14 in3.6 mm 0.12 in/hr3.0 mm/hr 0.14 in3.6 mm
01:32 AM 32.4°F0.2°C 31.6°F-0.2°C 97% Calm Calm -- 28.87 in977.7 mb 0.13 in3.3 mm 0.36 in/hr9.1 mm/hr 0.13 in3.3 mm
01:27 AM 32.4°F0.2°C 31.6°F-0.2°C 97% Calm Calm -- 28.86 in977.3 mb 0.10 in2.5 mm 0.12 in/hr3.0 mm/hr 0.11 in2.8 mm
01:22 AM 32.4°F0.2°C 31.6°F-0.2°C 97% Calm Calm -- 28.87 in977.7 mb 0.09 in2.3 mm 0.00 in/hr0.0 mm/hr 0.11 in2.8 mm
01:17 AM 32.4°F0.2°C 31.3°F-0.4°C 96% Calm Calm -- 28.86 in977.3 mb 0.13 in3.3 mm 0.00 in/hr0.0 mm/hr 0.10 in2.5 mm
01:12 AM 32.4°F0.2°C 31.3°F-0.4°C 96% Calm Calm -- 28.86 in977.3 mb 0.14 in3.6 mm 0.96 in/hr24.4 mm/hr 0.09 in2.3 mm
01:07 AM 32.4°F0.2°C 31.3°F-0.4°C 96% Calm Calm -- 28.86 in977.3 mb 0.06 in1.5 mm 0.00 in/hr0.0 mm/hr 0.08 in2.0 mm
01:02 AM 32.4°F0.2°C 31.3°F-0.4°C 96% Calm Calm -- 28.86 in977.3 mb 0.09 in2.3 mm 0.00 in/hr0.0 mm/hr 0.08 in2.0 mm
12:57 AM 32.4°F0.2°C 31.3°F-0.4°C 96% Calm Calm -- 28.86 in977.3 mb 0.09 in2.3 mm 0.00 in/hr0.0 mm/hr 0.07 in1.8 mm
12:52 AM 32.4°F0.2°C 31.3°F-0.4°C 96% Calm Calm -- 28.86 in977.3 mb 0.09 in2.3 mm 0.24 in/hr6.1 mm/hr 0.06 in1.5 mm
12:47 AM 32.4°F0.2°C 31.3°F-0.4°C 96% Calm Calm -- 28.86 in977.3 mb 0.07 in1.8 mm 0.06 in/hr1.5 mm/hr 0.06 in1.5 mm
12:37 AM 32.4°F0.2°C 31.6°F-0.2°C 97% Calm Calm -- 28.86 in977.3 mb 0.06 in1.5 mm 0.00 in/hr0.0 mm/hr 0.04 in1.0 mm
12:27 AM 32.4°F0.2°C 31.3°F-0.4°C 96% Calm Calm -- 28.86 in977.3 mb 0.10 in2.5 mm 0.48 in/hr12.2 mm/hr 0.03 in0.8 mm
12:22 AM 32.4°F0.2°C 31.3°F-0.4°C 96% Calm Calm -- 28.86 in977.3 mb 0.06 in1.5 mm 0.00 in/hr0.0 mm/hr 0.02 in0.5 mm
12:17 AM 32.4°F0.2°C 31.3°F-0.4°C 96% Calm Calm -- 28.87 in977.7 mb 0.06 in1.5 mm 0.00 in/hr0.0 mm/hr 0.02 in0.5 mm
12:12 AM 32.5°F0.3°C 31.5°F-0.3°C 96% Calm Calm -- 28.87 in977.7 mb 0.11 in2.8 mm 0.72 in/hr18.3 mm/hr 0.01 in0.3 mm
12:07 AM 32.5°F0.3°C 31.5°F-0.3°C 96% Calm Calm -- 28.87 in977.7 mb 0.05 in1.3 mm 0.43 in/hr10.9 mm/hr 0.05 in1.3 mm